createdAt,value
2023-05-09T00:02:08.045Z,1.33
2023-05-09T00:04:35.491Z,1.10
2023-05-09T00:07:02.272Z,1.37
2023-05-09T00:09:28.926Z,1.03
2023-05-09T00:11:55.534Z,1.67
2023-05-09T00:14:22.221Z,1.00
2023-05-09T00:16:49.262Z,1.50
2023-05-09T00:19:15.970Z,1.30
2023-05-09T00:21:42.545Z,1.20
2023-05-09T00:24:09.030Z,1.50
2023-05-09T00:26:35.636Z,2.13
2023-05-09T00:29:02.255Z,1.43
2023-05-09T00:31:28.810Z,1.37
2023-05-09T00:33:55.441Z,1.20
2023-05-09T00:36:21.962Z,1.23
2023-05-09T00:38:52.124Z,1.50
2023-05-09T00:41:18.711Z,1.20
2023-05-09T00:43:45.860Z,1.53
2023-05-09T00:46:12.705Z,1.60
2023-05-09T00:48:39.344Z,1.47
2023-05-09T00:51:06.342Z,1.90
2023-05-09T00:53:33.714Z,1.37
2023-05-09T00:56:00.770Z,1.03
2023-05-09T00:58:27.642Z,1.00
2023-05-09T01:00:54.180Z,1.30
2023-05-09T01:03:20.779Z,1.00
2023-05-09T01:06:01.806Z,1.13
2023-05-09T01:08:44.391Z,1.10
2023-05-09T01:11:23.264Z,1.70
2023-05-09T01:14:13.137Z,1.63
2023-05-09T01:16:49.684Z,1.37
2023-05-09T01:19:36.659Z,1.20
2023-05-09T01:22:08.923Z,1.53
2023-05-09T01:24:53.357Z,1.30
2023-05-09T01:27:38.350Z,1.40
2023-05-09T01:30:07.136Z,1.10
2023-05-09T01:32:38.311Z,1.30
2023-05-09T01:35:07.144Z,1.33
2023-05-09T01:37:39.226Z,1.43
2023-05-09T01:40:14.678Z,1.30
2023-05-09T01:42:55.258Z,1.13
2023-05-09T01:45:23.805Z,0.90
2023-05-09T01:47:50.881Z,0.90
2023-05-09T01:50:19.928Z,1.40
2023-05-09T01:52:52.667Z,1.30
2023-05-09T01:55:21.453Z,1.27
2023-05-09T01:57:49.813Z,1.17
2023-05-09T02:00:17.219Z,1.80
2023-05-09T02:02:44.392Z,1.20
2023-05-09T02:05:12.537Z,1.30
2023-05-09T02:07:41.847Z,1.20
2023-05-09T02:10:10.669Z,1.63
2023-05-09T02:12:37.722Z,1.10
2023-05-09T02:15:05.886Z,1.23
2023-05-09T02:17:32.844Z,0.83
2023-05-09T02:19:59.700Z,1.00
2023-05-09T02:22:26.766Z,1.00
2023-05-09T02:24:53.536Z,1.50
2023-05-09T02:27:21.360Z,1.40
2023-05-09T02:29:50.933Z,1.30
2023-05-09T02:32:23.946Z,1.90
2023-05-09T02:34:53.111Z,1.20
2023-05-09T02:37:21.075Z,1.10
2023-05-09T02:39:48.216Z,1.80
2023-05-09T02:42:20.992Z,1.10
2023-05-09T02:44:47.679Z,1.47
2023-05-09T02:47:14.278Z,1.63
2023-05-09T02:49:40.872Z,1.00
2023-05-09T02:52:07.385Z,1.50
2023-05-09T02:54:33.968Z,1.10
2023-05-09T02:57:00.662Z,1.10
2023-05-09T02:59:27.652Z,0.90
2023-05-09T03:01:54.509Z,1.10
2023-05-09T03:04:21.081Z,1.10
2023-05-09T03:06:47.700Z,0.90
2023-05-09T03:09:14.339Z,1.33
2023-05-09T03:11:41.119Z,1.20
2023-05-09T03:14:08.597Z,0.90
2023-05-09T03:16:35.432Z,0.90
2023-05-09T03:19:02.169Z,1.27
2023-05-09T03:21:28.774Z,1.40
2023-05-09T03:23:55.554Z,1.17
2023-05-09T03:26:22.180Z,0.90
2023-05-09T03:28:49.097Z,1.33
2023-05-09T03:31:16.390Z,1.40
2023-05-09T03:33:43.036Z,1.30
2023-05-09T03:36:10.043Z,1.50
2023-05-09T03:38:36.676Z,1.37
2023-05-09T03:41:04.239Z,1.00
2023-05-09T03:43:31.135Z,0.97
2023-05-09T03:45:58.128Z,1.20
2023-05-09T03:48:24.783Z,1.37
2023-05-09T03:50:51.824Z,1.60
2023-05-09T03:53:18.556Z,1.47
2023-05-09T03:55:45.212Z,1.20
2023-05-09T03:58:12.300Z,1.00
2023-05-09T04:00:40.542Z,1.13
2023-05-09T04:03:07.359Z,1.73
2023-05-09T04:05:35.469Z,1.20
2023-05-09T04:08:03.086Z,1.60
2023-05-09T04:10:31.400Z,1.40
2023-05-09T04:12:58.218Z,1.50
2023-05-09T04:15:25.180Z,1.17
2023-05-09T04:17:52.014Z,1.17
2023-05-09T04:20:18.760Z,1.27
2023-05-09T04:22:47.015Z,1.17
2023-05-09T04:25:14.872Z,1.20
2023-05-09T04:27:41.824Z,1.40
2023-05-09T04:30:09.494Z,1.50
2023-05-09T04:32:36.926Z,1.23
2023-05-09T04:35:04.317Z,1.40
2023-05-09T04:37:32.898Z,1.60
2023-05-09T04:39:59.649Z,1.13
2023-05-09T04:42:26.385Z,1.07
2023-05-09T04:44:53.193Z,1.37
2023-05-09T04:47:19.960Z,1.27
2023-05-09T04:49:46.836Z,1.10
2023-05-09T04:52:13.450Z,1.27
2023-05-09T04:54:40.443Z,1.10
2023-05-09T04:57:17.408Z,1.20
2023-05-09T04:59:44.955Z,1.70
2023-05-09T05:02:11.878Z,1.20
2023-05-09T05:04:38.951Z,1.60
2023-05-09T05:07:05.862Z,1.20
2023-05-09T05:09:32.599Z,1.40
2023-05-09T05:12:02.271Z,1.37
2023-05-09T05:14:29.870Z,1.40
2023-05-09T05:16:56.648Z,1.30
2023-05-09T05:19:23.444Z,1.23
2023-05-09T05:21:50.217Z,1.20
2023-05-09T05:24:16.960Z,1.37
2023-05-09T05:26:43.817Z,1.27
2023-05-09T05:29:10.820Z,1.30
2023-05-09T05:31:37.704Z,1.63
2023-05-09T05:34:04.736Z,1.80
2023-05-09T05:36:32.371Z,1.50
2023-05-09T05:38:59.338Z,1.40
2023-05-09T05:41:27.321Z,1.50
2023-05-09T05:43:54.568Z,1.50
2023-05-09T05:46:21.534Z,1.47
2023-05-09T05:48:48.281Z,1.60
2023-05-09T05:51:15.410Z,1.37
2023-05-09T05:53:42.481Z,1.47
2023-05-09T05:56:09.606Z,1.30
2023-05-09T05:58:36.223Z,1.50
2023-05-09T06:01:02.906Z,1.43
2023-05-09T06:03:29.723Z,1.50
2023-05-09T06:05:56.804Z,1.35
2023-05-09T06:08:23.525Z,1.80
2023-05-09T06:10:50.328Z,1.60
2023-05-09T06:13:17.119Z,1.67
2023-05-09T06:15:43.986Z,1.52
2023-05-09T06:18:10.889Z,1.73
2023-05-09T06:20:37.692Z,1.67
2023-05-09T06:23:04.331Z,1.60
2023-05-09T06:25:31.017Z,1.20
2023-05-09T06:27:57.907Z,1.50
2023-05-09T06:30:26.697Z,1.50
2023-05-09T06:32:55.449Z,1.52
2023-05-09T06:35:22.461Z,1.60
2023-05-09T06:37:49.618Z,1.80
2023-05-09T06:40:17.159Z,1.63
2023-05-09T06:42:43.997Z,1.83
2023-05-09T06:45:11.633Z,2.17
2023-05-09T06:47:38.411Z,2.00
2023-05-09T06:50:05.508Z,2.35
2023-05-09T06:52:32.107Z,1.90
2023-05-09T06:54:58.704Z,1.92
2023-05-09T06:57:25.355Z,3.05
2023-05-09T06:59:51.857Z,2.70
2023-05-09T07:02:18.599Z,2.22
2023-05-09T07:04:45.665Z,2.95
2023-05-09T07:07:12.276Z,2.28
2023-05-09T07:09:39.173Z,2.22
2023-05-09T07:12:06.142Z,1.88
2023-05-09T07:14:32.874Z,1.92
2023-05-09T07:17:13.629Z,2.00
2023-05-09T07:19:48.150Z,2.72
2023-05-09T07:22:14.933Z,2.70
2023-05-09T07:24:41.744Z,2.42
2023-05-09T07:27:08.387Z,2.55
2023-05-09T07:29:35.101Z,2.65
2023-05-09T07:32:02.076Z,1.80
2023-05-09T07:34:28.839Z,2.58
2023-05-09T07:36:55.630Z,2.28
2023-05-09T07:39:22.282Z,2.20
2023-05-09T07:41:48.942Z,2.50
2023-05-09T07:44:16.173Z,2.22
2023-05-09T07:46:42.957Z,2.78
2023-05-09T07:49:10.013Z,2.55
2023-05-09T07:51:36.936Z,3.25
2023-05-09T07:54:03.813Z,2.58
2023-05-09T07:56:33.281Z,2.78
2023-05-09T07:58:59.946Z,3.25
2023-05-09T08:01:26.682Z,3.00
2023-05-09T08:03:53.827Z,3.47
2023-05-09T08:06:20.619Z,2.50
2023-05-09T08:08:47.366Z,3.65
2023-05-09T08:11:14.023Z,3.47
2023-05-09T08:13:40.657Z,2.80
2023-05-09T08:16:07.359Z,3.05
2023-05-09T08:18:34.155Z,2.45
2023-05-09T08:21:01.182Z,3.05
2023-05-09T08:23:30.470Z,3.30
2023-05-09T08:25:57.312Z,4.10
2023-05-09T08:28:28.882Z,3.13
2023-05-09T08:30:57.090Z,3.15
2023-05-09T08:33:24.336Z,3.60
2023-05-09T08:35:55.055Z,3.30
2023-05-09T08:38:22.093Z,3.03
2023-05-09T08:40:49.020Z,2.45
2023-05-09T08:43:19.354Z,2.85
2023-05-09T08:45:57.719Z,2.95
2023-05-09T08:48:25.952Z,3.00
2023-05-09T08:50:53.527Z,3.85
2023-05-09T08:53:21.897Z,3.13
2023-05-09T08:55:52.386Z,3.53
2023-05-09T08:58:20.582Z,3.25
2023-05-09T09:00:48.183Z,2.78
2023-05-09T09:03:15.637Z,2.85
2023-05-09T09:05:43.383Z,2.80
2023-05-09T09:08:11.224Z,2.67
2023-05-09T09:10:43.012Z,3.35
2023-05-09T09:13:10.362Z,3.22
2023-05-09T09:15:38.816Z,3.20
2023-05-09T09:18:10.439Z,2.70
2023-05-09T09:20:41.775Z,2.58
2023-05-09T09:23:12.429Z,2.65
2023-05-09T09:25:39.862Z,2.58
2023-05-09T09:28:06.790Z,2.67
2023-05-09T09:30:33.627Z,2.53
2023-05-09T09:33:00.715Z,2.60
2023-05-09T09:35:27.750Z,2.58
2023-05-09T09:38:02.002Z,2.15
2023-05-09T09:40:28.644Z,2.47
2023-05-09T09:42:55.328Z,2.55
2023-05-09T09:45:22.061Z,2.10
2023-05-09T09:47:50.319Z,2.10
2023-05-09T09:50:23.562Z,1.95
2023-05-09T09:52:52.245Z,2.47
2023-05-09T09:55:20.433Z,1.92
2023-05-09T09:57:48.565Z,2.17
2023-05-09T10:00:17.510Z,2.47
2023-05-09T10:02:52.443Z,2.05
2023-05-09T10:05:27.605Z,1.80
2023-05-09T10:08:00.196Z,1.63
2023-05-09T10:10:30.557Z,1.77
2023-05-09T10:12:59.857Z,1.75
2023-05-09T10:15:35.631Z,1.88
2023-05-09T10:18:11.222Z,2.08
2023-05-09T10:20:40.969Z,2.95
2023-05-09T10:23:08.709Z,1.90
2023-05-09T10:25:44.666Z,1.48
2023-05-09T10:28:13.736Z,1.70
2023-05-09T10:30:55.576Z,1.88
2023-05-09T10:33:30.851Z,1.63
2023-05-09T10:36:01.264Z,1.20
2023-05-09T10:38:28.540Z,1.52
2023-05-09T10:40:56.788Z,1.83
2023-05-09T10:43:25.223Z,1.63
2023-05-09T10:45:52.768Z,1.70
2023-05-09T10:48:19.956Z,1.50
2023-05-09T10:50:47.175Z,1.52
2023-05-09T10:53:21.786Z,1.70
2023-05-09T10:55:50.301Z,1.30
2023-05-09T10:58:37.627Z,1.45
2023-05-09T11:01:05.823Z,1.58
2023-05-09T11:03:55.886Z,2.17
2023-05-09T11:06:45.462Z,2.15
2023-05-09T11:09:41.665Z,1.63
2023-05-09T11:12:11.923Z,1.67
2023-05-09T11:14:46.453Z,1.42
2023-05-09T11:17:22.232Z,1.55
2023-05-09T11:19:49.669Z,1.60
2023-05-09T11:22:37.803Z,1.70
2023-05-09T11:25:17.224Z,1.98
2023-05-09T11:27:49.782Z,2.70
2023-05-09T11:30:19.712Z,2.13
2023-05-09T11:32:56.153Z,1.65
2023-05-09T11:35:24.473Z,2.05
2023-05-09T11:38:03.918Z,2.28
2023-05-09T11:40:32.121Z,1.88
2023-05-09T11:43:00.249Z,1.65
2023-05-09T11:45:32.186Z,2.17
2023-05-09T11:47:59.634Z,1.77
2023-05-09T11:50:26.684Z,2.30
2023-05-09T11:52:53.743Z,1.90
2023-05-09T11:55:25.909Z,1.90
2023-05-09T11:57:54.495Z,1.65
2023-05-09T12:00:23.707Z,1.73
2023-05-09T12:02:51.738Z,2.10
2023-05-09T12:05:20.372Z,2.03
2023-05-09T12:07:51.099Z,1.92
2023-05-09T12:10:25.727Z,1.92
2023-05-09T12:12:57.465Z,2.33
2023-05-09T12:15:24.659Z,1.98
2023-05-09T12:18:05.580Z,1.80
2023-05-09T12:20:42.535Z,1.98
2023-05-09T12:23:11.264Z,1.73
2023-05-09T12:25:37.928Z,2.40
2023-05-09T12:28:05.480Z,1.92
2023-05-09T12:30:32.725Z,1.60
2023-05-09T12:33:00.991Z,2.25
2023-05-09T12:35:27.946Z,1.67
2023-05-09T12:37:57.339Z,2.00
2023-05-09T12:40:24.446Z,1.80
2023-05-09T12:42:54.551Z,1.70
2023-05-09T12:45:21.289Z,1.60
2023-05-09T12:47:52.244Z,2.13
2023-05-09T12:50:19.359Z,1.75
2023-05-09T12:53:02.903Z,1.85
2023-05-09T12:55:31.911Z,1.70
2023-05-09T12:57:59.658Z,2.00
2023-05-09T13:00:26.505Z,1.75
2023-05-09T13:02:53.574Z,1.48
2023-05-09T13:05:22.192Z,1.77
2023-05-09T13:07:52.408Z,1.48
2023-05-09T13:10:31.167Z,1.38
2023-05-09T13:12:57.931Z,1.85
2023-05-09T13:15:26.929Z,1.58
2023-05-09T13:17:54.415Z,1.23
2023-05-09T13:20:21.364Z,1.85
2023-05-09T13:22:48.028Z,1.48
2023-05-09T13:25:16.188Z,1.70
2023-05-09T13:27:42.816Z,1.60
2023-05-09T13:30:09.790Z,1.40
2023-05-09T13:32:39.368Z,1.30
2023-05-09T13:35:08.094Z,1.13
2023-05-09T13:37:35.431Z,1.17
2023-05-09T13:40:02.846Z,1.20
2023-05-09T13:42:29.441Z,1.20
2023-05-09T13:44:56.050Z,1.10
2023-05-09T13:47:22.836Z,1.40
2023-05-09T13:49:49.624Z,1.98
2023-05-09T13:52:16.868Z,1.10
2023-05-09T13:54:43.912Z,1.30
2023-05-09T13:57:11.027Z,1.25
2023-05-09T13:59:37.938Z,1.50
2023-05-09T14:02:04.677Z,1.40
2023-05-09T14:04:34.669Z,1.00
2023-05-09T14:07:01.580Z,1.42
2023-05-09T14:09:29.690Z,1.00
2023-05-09T14:11:57.201Z,1.33
2023-05-09T14:14:25.470Z,1.10
2023-05-09T14:16:52.160Z,1.02
2023-05-09T14:19:18.934Z,1.45
2023-05-09T14:21:49.022Z,1.90
2023-05-09T14:24:16.515Z,1.45
2023-05-09T14:26:43.933Z,0.90
2023-05-09T14:29:11.136Z,1.23
2023-05-09T14:31:37.997Z,1.30
2023-05-09T14:34:05.383Z,1.10
2023-05-09T14:36:35.970Z,1.00
2023-05-09T14:39:02.918Z,1.23
2023-05-09T14:41:29.563Z,0.70
2023-05-09T14:43:56.354Z,1.02
2023-05-09T14:46:24.995Z,0.98
2023-05-09T14:48:52.865Z,1.00
2023-05-09T14:51:19.638Z,0.90
2023-05-09T14:53:47.387Z,1.23
2023-05-09T14:56:14.146Z,1.13
2023-05-09T14:58:40.815Z,0.90
2023-05-09T15:01:07.470Z,0.88
2023-05-09T15:03:37.358Z,0.80
2023-05-09T15:06:04.197Z,0.98
2023-05-09T15:08:51.140Z,0.90
2023-05-09T15:11:17.911Z,0.75
2023-05-09T15:13:44.602Z,0.90
2023-05-09T15:16:11.337Z,1.27
2023-05-09T15:18:42.801Z,1.00
2023-05-09T15:21:10.087Z,0.85
2023-05-09T15:23:36.730Z,1.20
2023-05-09T15:26:03.591Z,0.80
2023-05-09T15:28:30.277Z,0.70
2023-05-09T15:30:58.188Z,1.00
2023-05-09T15:33:25.086Z,0.80
2023-05-09T15:35:57.968Z,0.90
2023-05-09T15:38:24.804Z,1.10
2023-05-09T15:40:51.874Z,0.90
2023-05-09T15:43:18.556Z,1.10
2023-05-09T15:45:46.754Z,1.25
2023-05-09T15:48:14.332Z,0.90
2023-05-09T15:50:42.314Z,0.80
2023-05-09T15:53:09.394Z,0.55
2023-05-09T15:55:36.652Z,1.00
2023-05-09T15:58:04.039Z,0.88
2023-05-09T16:00:31.034Z,0.80
2023-05-09T16:03:02.104Z,0.88
2023-05-09T16:05:29.295Z,0.68
2023-05-09T16:07:56.146Z,0.70
2023-05-09T16:10:22.725Z,0.90
2023-05-09T16:12:49.487Z,0.80
2023-05-09T16:15:16.125Z,0.90
2023-05-09T16:17:43.576Z,0.60
2023-05-09T16:20:13.830Z,0.50
2023-05-09T16:22:41.222Z,0.70
2023-05-09T16:25:08.723Z,0.90
2023-05-09T16:27:35.424Z,0.98
2023-05-09T16:30:03.110Z,0.65
2023-05-09T16:32:29.788Z,0.47
2023-05-09T16:34:56.522Z,0.80
2023-05-09T16:37:23.755Z,0.90
2023-05-09T16:39:50.440Z,0.57
2023-05-09T16:42:23.780Z,0.60
2023-05-09T16:44:54.084Z,0.70
2023-05-09T16:47:20.923Z,0.90
2023-05-09T16:49:47.623Z,0.70
2023-05-09T16:52:19.800Z,0.77
2023-05-09T16:54:46.535Z,0.90
2023-05-09T16:57:13.469Z,0.80
2023-05-09T16:59:40.174Z,0.57
2023-05-09T17:02:07.329Z,0.77
2023-05-09T17:04:40.242Z,0.65
2023-05-09T17:07:06.740Z,0.70
2023-05-09T17:09:33.360Z,0.63
2023-05-09T17:12:00.718Z,0.93
2023-05-09T17:14:27.409Z,0.50
2023-05-09T17:16:54.062Z,0.77
2023-05-09T17:19:23.492Z,0.60
2023-05-09T17:21:50.456Z,0.82
2023-05-09T17:24:17.498Z,0.98
2023-05-09T17:26:44.262Z,0.73
2023-05-09T17:29:10.966Z,0.70
2023-05-09T17:31:37.703Z,0.77
2023-05-09T17:34:05.749Z,0.80
2023-05-09T17:36:33.763Z,0.70
2023-05-09T17:39:00.931Z,0.55
2023-05-09T17:41:27.892Z,1.83
2023-05-09T17:43:57.278Z,0.52
2023-05-09T17:46:24.516Z,1.08
2023-05-09T17:48:51.465Z,0.70
2023-05-09T17:51:18.652Z,0.68
2023-05-09T17:53:45.339Z,0.80
2023-05-09T17:56:11.925Z,0.63
2023-05-09T17:58:38.635Z,0.80
2023-05-09T18:01:05.859Z,0.82
2023-05-09T18:03:33.066Z,0.80
2023-05-09T18:06:02.862Z,1.02
2023-05-09T18:08:29.989Z,0.77
2023-05-09T18:10:57.453Z,1.15
2023-05-09T18:13:24.603Z,1.00
2023-05-09T18:15:51.632Z,1.10
2023-05-09T18:18:18.332Z,0.95
2023-05-09T18:20:47.263Z,1.10
2023-05-09T18:23:15.155Z,0.60
2023-05-09T18:25:42.088Z,0.88
2023-05-09T18:28:08.880Z,0.95
2023-05-09T18:30:36.292Z,1.20
2023-05-09T18:33:03.833Z,0.90
2023-05-09T18:35:30.499Z,0.82
2023-05-09T18:37:57.261Z,1.00
2023-05-09T18:40:23.978Z,0.80
2023-05-09T18:42:50.601Z,0.60
2023-05-09T18:45:17.483Z,0.52
2023-05-09T18:47:44.169Z,0.70
2023-05-09T18:50:13.689Z,0.50
2023-05-09T18:52:40.862Z,0.90
2023-05-09T18:55:08.038Z,0.68
2023-05-09T18:57:34.836Z,0.70
2023-05-09T19:00:01.762Z,0.80
2023-05-09T19:02:30.589Z,0.60
2023-05-09T19:04:57.553Z,0.80
2023-05-09T19:07:32.905Z,0.85
2023-05-09T19:10:00.736Z,0.60
2023-05-09T19:12:31.811Z,0.57
2023-05-09T19:14:58.458Z,0.57
2023-05-09T19:17:25.057Z,1.05
2023-05-09T19:19:51.652Z,0.50
2023-05-09T19:22:18.426Z,0.68
2023-05-09T19:24:45.130Z,0.60
2023-05-09T19:27:11.819Z,0.70
2023-05-09T19:29:38.417Z,0.52
2023-05-09T19:32:07.099Z,0.70
2023-05-09T19:34:33.707Z,0.95
2023-05-09T19:37:00.539Z,0.63
2023-05-09T19:39:28.889Z,1.27
2023-05-09T19:41:55.722Z,0.55
2023-05-09T19:44:22.313Z,0.75
2023-05-09T19:46:49.060Z,0.77
2023-05-09T19:49:17.903Z,0.80
2023-05-09T19:51:45.186Z,0.88
2023-05-09T19:54:12.425Z,0.80
2023-05-09T19:56:39.204Z,0.90
2023-05-09T19:59:05.810Z,0.73
2023-05-09T20:01:32.476Z,1.13
2023-05-09T20:03:59.584Z,0.80
2023-05-09T20:06:26.259Z,0.80
2023-05-09T20:08:52.924Z,0.95
2023-05-09T20:11:19.608Z,1.10
2023-05-09T20:13:46.625Z,1.05
2023-05-09T20:16:21.444Z,0.77
2023-05-09T20:18:50.681Z,0.93
2023-05-09T20:21:18.852Z,1.13
2023-05-09T20:23:45.554Z,0.80
2023-05-09T20:26:12.296Z,0.98
2023-05-09T20:28:39.071Z,1.20
2023-05-09T20:31:05.816Z,2.13
2023-05-09T20:33:32.817Z,0.90
2023-05-09T20:35:59.482Z,1.43
2023-05-09T20:38:26.131Z,1.00
2023-05-09T20:40:52.703Z,1.43
2023-05-09T20:43:34.359Z,1.17
2023-05-09T20:46:04.972Z,0.90
2023-05-09T20:48:31.913Z,1.00
2023-05-09T20:50:58.589Z,1.53
2023-05-09T20:53:31.368Z,1.10
2023-05-09T20:55:59.905Z,1.50
2023-05-09T20:58:28.161Z,1.00
2023-05-09T21:00:57.863Z,1.03
2023-05-09T21:03:24.611Z,1.20
2023-05-09T21:05:51.266Z,1.20
2023-05-09T21:08:17.899Z,1.07
2023-05-09T21:10:44.681Z,1.20
2023-05-09T21:13:11.328Z,1.00
2023-05-09T21:15:37.936Z,1.30
2023-05-09T21:18:05.029Z,0.97
2023-05-09T21:20:31.643Z,0.97
2023-05-09T21:22:58.326Z,1.20
2023-05-09T21:25:25.069Z,1.00
2023-05-09T21:27:51.643Z,1.00
2023-05-09T21:30:18.437Z,0.90
2023-05-09T21:32:45.042Z,1.10
2023-05-09T21:35:13.257Z,1.07
2023-05-09T21:37:58.840Z,1.30
2023-05-09T21:40:25.723Z,1.13
2023-05-09T21:42:52.296Z,1.30
2023-05-09T21:45:19.189Z,1.20
2023-05-09T21:47:45.929Z,1.20
2023-05-09T21:50:12.746Z,1.17
2023-05-09T21:52:39.331Z,1.30
2023-05-09T21:55:06.028Z,1.10
2023-05-09T21:57:32.635Z,0.87
2023-05-09T22:00:01.598Z,1.27
2023-05-09T22:02:31.885Z,1.30
2023-05-09T22:04:58.488Z,0.90
2023-05-09T22:07:25.395Z,0.70
2023-05-09T22:09:52.980Z,1.93
2023-05-09T22:12:19.875Z,1.10
2023-05-09T22:14:55.757Z,3.17
2023-05-09T22:17:24.118Z,1.10
2023-05-09T22:19:50.845Z,1.23
2023-05-09T22:22:17.538Z,0.83
2023-05-09T22:24:44.208Z,1.20
2023-05-09T22:27:11.140Z,1.07
2023-05-09T22:29:37.782Z,1.20
2023-05-09T22:32:04.694Z,0.90
2023-05-09T22:34:31.468Z,1.00
2023-05-09T22:36:58.008Z,1.23
2023-05-09T22:39:24.813Z,2.13
2023-05-09T22:41:51.424Z,1.77
2023-05-09T22:44:18.072Z,1.17
2023-05-09T22:46:44.740Z,1.30
2023-05-09T22:49:11.349Z,1.00
2023-05-09T22:51:37.966Z,1.23
2023-05-09T22:54:04.625Z,0.83
2023-05-09T22:56:31.492Z,1.10
2023-05-09T22:58:58.950Z,1.13
2023-05-09T23:01:27.334Z,1.20
2023-05-09T23:03:53.986Z,1.40
2023-05-09T23:06:20.791Z,0.87
2023-05-09T23:08:47.466Z,1.20
2023-05-09T23:11:13.994Z,1.10
2023-05-09T23:13:40.753Z,1.23
2023-05-09T23:16:07.458Z,1.43
2023-05-09T23:18:34.048Z,1.30
2023-05-09T23:21:00.555Z,1.30
2023-05-09T23:23:27.297Z,1.13
2023-05-09T23:25:53.866Z,1.37
2023-05-09T23:28:25.102Z,1.20
2023-05-09T23:30:54.425Z,0.97
2023-05-09T23:33:21.526Z,1.23
2023-05-09T23:35:48.462Z,1.50
2023-05-09T23:38:15.027Z,1.27
2023-05-09T23:40:45.227Z,1.43
2023-05-09T23:43:13.004Z,1.13
2023-05-09T23:45:53.740Z,1.00
2023-05-09T23:48:20.470Z,1.10
2023-05-09T23:50:46.942Z,1.10
2023-05-09T23:53:13.701Z,1.10
2023-05-09T23:55:40.300Z,1.20
2023-05-09T23:58:06.963Z,1.17
